Grafton, Virginia
Current Conditions -  °F | °C
As of 1:54 PM on Sunday 23 Nov 2014 (Local Time) from KPHF Reporting Station
Clear Clear  
Wind Chill: 16°   Ceiling: Unl
Heat Index: 16°   Visibility: 10mi
Dew Point:   Wind: 5mph
Humidity: 56%   Direction: 70°ENE
Pressure: 30.14"   Gusts: NA
Location:  37.1781°N, 76.4669°W
Report Text: KPHF 231854Z 07004KT 10SM CLR 16/07 A3014 RMK AO2 RAE1755 SLP206 P0000 T01610072 $
Loading
Personal Weather Stations






























Interactive Weather Map New forecast layout! Learn more

10-Day Weather Forecast

Advertisements
Track Severe Weather on mobile